Erdman, Pennsylvania
Current Conditions -  °F | °C
As of 7:53 PM on Saturday 22 Nov 2014 (Local Time) from KSEG Reporting Station
Overcast Overcast  
Wind Chill: 37°   Ceiling: 6500
Heat Index: 40°   Visibility: 10mi
Dew Point: 18°   Wind: 5mph
Humidity: 41%   Direction: 200°SSW
Pressure: 30.22"   Gusts: NA
Location:  40.6198°N, 76.7286°W
Report Text: KSEG 230053Z AUTO 20004KT 10SM OVC065 04/M08 A3022 RMK AO2 RAB26E35 SLP238 P0000 T00441078
Loading
Personal Weather Stations






























Interactive Weather Map New forecast layout! Learn more

10-Day Weather Forecast

Advertisements
Track Severe Weather on mobile